Temp: 5.2°C   Baro: 1000.3mb
  Wind: 0.0mph   Dir: WSW (242°)
  Rain: 0.0mm (0.0mm/hr)
  Solar: 63W/m2  Hum: 90%
 
Bath Spa Weather Historical Data
Daily Summary for December 4, 2019 Units:  Metric    English   Both
Next Day »
Daily Weekly Monthly Yearly Custom
  High: Low: Average:
Temperature: 8.7 °C -0.7 °C 2 °C
Dew Point: 5.5 °C -1.8 °C 0.5 °C
Humidity: 95% 78% 90%
Wind Speed: 4.7km/h 0.0km/h 0.1km/h
Wind Gust: 6.4km/h - -
Wind direction- - SSW
Pressure: 1022.2 hPa 1018.8 hPa -
Precipitation: 0.3 mm    
Historical Graphs
 
 
Tabular Data for December 4, 2019
Time Temperature Dew Point Pressure Wind direction Wind Speed Wind Gust Humidity Rainfall Rate (Hourly) solar
00:00 1.3 °C 0.0 °C 1022.2 hPa Calm     91% 0.0 mm 0.00 W/m2
00:05 1.3 °C 0.0 °C 1022.2 hPa Calm     91% 0.0 mm 0.00 W/m2
00:10 1.2 °C -0.1 °C 1022.2 hPa Calm     91% 0.0 mm 0.00 W/m2
00:15 1.2 °C -0.1 °C 1022.2 hPa Calm     91% 0.0 mm 0.00 W/m2
00:20 1.2 °C -0.1 °C 1022.2 hPa Calm     91% 0.0 mm 0.00 W/m2
00:25 1.1 °C -0.2 °C 1022.2 hPa Calm     91% 0.0 mm 0.00 W/m2
00:30 1.1 °C -0.2 °C 1022.2 hPa Calm     91% 0.0 mm 0.00 W/m2
00:35 1.1 °C -0.1 °C 1022.2 hPa Calm     92% 0.0 mm 0.00 W/m2
00:40 1.0 °C -0.3 °C 1021.9 hPa Calm     91% 0.0 mm 0.00 W/m2
00:45 0.9 °C -0.4 °C 1021.9 hPa Calm     91% 0.0 mm 0.00 W/m2
00:51 0.9 °C -0.4 °C 1021.9 hPa Calm     91% 0.0 mm 0.00 W/m2
00:55 0.9 °C -0.4 °C 1021.9 hPa Calm     91% 0.0 mm 0.00 W/m2
01:00 0.9 °C -0.3 °C 1021.9 hPa Calm     92% 0.0 mm 0.00 W/m2
01:05 0.9 °C -0.3 °C 1021.9 hPa Calm     92% 0.0 mm 0.00 W/m2
01:10 0.8 °C -0.4 °C 1021.9 hPa Calm     92% 0.0 mm 0.00 W/m2
01:15 0.8 °C -0.4 °C 1021.9 hPa Calm     92% 0.0 mm 0.00 W/m2
01:20 0.8 °C -0.4 °C 1021.6 hPa Calm     92% 0.0 mm 0.00 W/m2
01:25 0.7 °C -0.5 °C 1021.6 hPa Calm     92% 0.0 mm 0.00 W/m2
01:30 0.6 °C -0.5 °C 1021.6 hPa Calm     92% 0.0 mm 0.00 W/m2
01:35 0.6 °C -0.5 °C 1021.6 hPa Calm     92% 0.0 mm 0.00 W/m2
01:40 0.6 °C -0.5 °C 1021.6 hPa Calm     92% 0.0 mm 0.00 W/m2
01:45 0.4 °C -0.7 °C 1021.2 hPa Calm     92% 0.0 mm 0.00 W/m2
01:50 0.5 °C -0.6 °C 1021.2 hPa Calm     92% 0.0 mm 0.00 W/m2
01:55 0.4 °C -0.7 °C 1021.2 hPa Calm     92% 0.0 mm 0.00 W/m2
02:00 0.4 °C -0.7 °C 1021.2 hPa Calm     92% 0.0 mm 0.00 W/m2
02:05 0.3 °C -0.8 °C 1021.2 hPa Calm     92% 0.0 mm 0.00 W/m2
02:10 0.2 °C -0.9 °C 1021.2 hPa Calm     92% 0.0 mm 0.00 W/m2
02:15 0.1 °C -1.0 °C 1021.2 hPa Calm     92% 0.0 mm 0.00 W/m2
02:20 0.0 °C -1.1 °C 1021.2 hPa Calm     92% 0.0 mm 0.00 W/m2
02:25 -0.1 °C -1.2 °C 1021.2 hPa Calm     92% 0.0 mm 0.00 W/m2
02:30 0.0 °C -1.1 °C 1021.6 hPa Calm     92% 0.0 mm 0.00 W/m2
02:35 0.1 °C -1.0 °C 1021.6 hPa Calm     92% 0.0 mm 0.00 W/m2
02:40 0.1 °C -1.0 °C 1021.2 hPa Calm     92% 0.0 mm 0.00 W/m2
02:45 0.1 °C -1.0 °C 1021.2 hPa Calm     92% 0.0 mm 0.00 W/m2
02:50 0.1 °C -1.0 °C 1021.2 hPa Calm     92% 0.0 mm 0.00 W/m2
02:55 0.2 °C -0.9 °C 1021.2 hPa Calm     92% 0.0 mm 0.00 W/m2
03:00 0.3 °C -0.8 °C 1021.2 hPa Calm     92% 0.0 mm 0.00 W/m2
03:05 0.3 °C -0.8 °C 1020.9 hPa Calm     92% 0.0 mm 0.00 W/m2
03:10 0.4 °C -0.7 °C 1020.9 hPa Calm     92% 0.0 mm 0.00 W/m2
03:15 0.4 °C -0.6 °C 1020.9 hPa Calm     93% 0.0 mm 0.00 W/m2
03:20 0.4 °C -0.6 °C 1020.9 hPa Calm     93% 0.0 mm 0.00 W/m2
03:25 0.4 °C -0.6 °C 1020.5 hPa Calm     93% 0.0 mm 0.00 W/m2
03:30 0.2 °C -0.9 °C 1020.5 hPa Calm     92% 0.0 mm 0.00 W/m2
03:35 0.2 °C -0.9 °C 1020.5 hPa Calm     92% 0.0 mm 0.00 W/m2
03:40 0.1 °C -1.0 °C 1020.5 hPa Calm     92% 0.0 mm 0.00 W/m2
03:45 0.2 °C -0.9 °C 1020.5 hPa Calm     92% 0.0 mm 0.00 W/m2
03:50 0.2 °C -0.9 °C 1020.5 hPa Calm     92% 0.0 mm 0.00 W/m2
03:55 0.2 °C -0.9 °C 1020.5 hPa Calm     92% 0.0 mm 0.00 W/m2
04:00 0.2 °C -0.8 °C 1020.5 hPa Calm     93% 0.0 mm 0.00 W/m2
04:05 0.2 °C -0.8 °C 1020.5 hPa Calm     93% 0.0 mm 0.00 W/m2
04:10 0.3 °C -0.7 °C 1020.5 hPa Calm     93% 0.0 mm 0.00 W/m2
04:15 0.2 °C -0.8 °C 1020.2 hPa Calm     93% 0.0 mm 0.00 W/m2
04:20 0.2 °C -0.8 °C 1020.2 hPa Calm     93% 0.0 mm 0.00 W/m2
04:25 0.2 °C -0.8 °C 1020.2 hPa Calm     93% 0.0 mm 0.00 W/m2
04:30 0.1 °C -0.9 °C 1020.2 hPa Calm     93% 0.0 mm 0.00 W/m2
04:35 0.1 °C -0.9 °C 1020.2 hPa Calm     93% 0.0 mm 0.00 W/m2
04:40 0.0 °C -1.0 °C 1020.2 hPa Calm     93% 0.0 mm 0.00 W/m2
04:46 0.1 °C -0.9 °C 1020.2 hPa Calm     93% 0.0 mm 0.00 W/m2
04:50 0.2 °C -0.8 °C 1020.2 hPa Calm     93% 0.0 mm 0.00 W/m2
04:55 0.2 °C -0.8 °C 1019.9 hPa Calm     93% 0.0 mm 0.00 W/m2
05:00 0.0 °C -1.0 °C 1019.9 hPa Calm     93% 0.0 mm 0.00 W/m2
05:05 -0.1 °C -1.1 °C 1019.9 hPa Calm     93% 0.0 mm 0.00 W/m2
05:10 -0.1 °C -1.1 °C 1019.9 hPa Calm     93% 0.0 mm 0.00 W/m2
05:15 -0.2 °C -1.2 °C 1019.9 hPa Calm     93% 0.0 mm 0.00 W/m2
05:20 -0.2 °C -1.2 °C 1019.9 hPa Calm     93% 0.0 mm 0.00 W/m2
05:25 -0.2 °C -1.2 °C 1019.9 hPa Calm     93% 0.0 mm 0.00 W/m2
05:30 -0.3 °C -1.3 °C 1019.9 hPa Calm     93% 0.0 mm 0.00 W/m2
05:35 -0.3 °C -1.3 °C 1019.9 hPa Calm     93% 0.0 mm 0.00 W/m2
05:40 -0.3 °C -1.3 °C 1019.9 hPa Calm     93% 0.0 mm 0.00 W/m2
05:45 -0.3 °C -1.3 °C 1019.9 hPa Calm     93% 0.0 mm 0.00 W/m2
05:50 -0.4 °C -1.4 °C 1019.9 hPa Calm     93% 0.0 mm 0.00 W/m2
05:55 -0.4 °C -1.4 °C 1019.5 hPa Calm     93% 0.0 mm 0.00 W/m2
06:00 -0.2 °C -1.2 °C 1019.5 hPa Calm     93% 0.0 mm 0.00 W/m2
06:05 -0.2 °C -1.2 °C 1019.5 hPa Calm     93% 0.0 mm 0.00 W/m2
06:10 -0.2 °C -1.2 °C 1019.5 hPa Calm     93% 0.0 mm 0.00 W/m2
06:15 -0.3 °C -1.3 °C 1019.5 hPa Calm     93% 0.0 mm 0.00 W/m2
06:20 -0.3 °C -1.3 °C 1019.5 hPa Calm     93% 0.0 mm 0.00 W/m2
06:25 -0.3 °C -1.3 °C 1019.5 hPa Calm     93% 0.0 mm 0.00 W/m2
06:30 -0.3 °C -1.3 °C 1019.5 hPa Calm     93% 0.0 mm 0.00 W/m2
06:35 -0.6 °C -1.6 °C 1019.5 hPa Calm     93% 0.0 mm 0.00 W/m2
06:40 -0.5 °C -1.5 °C 1019.5 hPa Calm     93% 0.0 mm 0.00 W/m2
06:45 -0.4 °C -1.4 °C 1019.5 hPa Calm     93% 0.0 mm 0.00 W/m2
06:50 -0.4 °C -1.2 °C 1019.5 hPa Calm     94% 0.0 mm 0.00 W/m2
06:55 -0.4 °C -1.2 °C 1019.5 hPa Calm     94% 0.0 mm 0.00 W/m2
07:00 -0.5 °C -1.3 °C 1019.9 hPa Calm     94% 0.0 mm 0.00 W/m2
07:05 -0.6 °C -1.6 °C 1019.9 hPa Calm     93% 0.0 mm 0.00 W/m2
07:10 -0.5 °C -1.3 °C 1019.9 hPa Calm     94% 0.0 mm 0.00 W/m2
07:15 -0.6 °C -1.4 °C 1019.9 hPa Calm     94% 0.0 mm 0.00 W/m2
07:20 -0.5 °C -1.3 °C 1019.9 hPa Calm     94% 0.0 mm 0.00 W/m2
07:25 -0.6 °C -1.4 °C 1019.9 hPa Calm     94% 0.0 mm 0.00 W/m2
07:30 -0.5 °C -1.3 °C 1019.9 hPa Calm     94% 0.0 mm 0.00 W/m2
07:35 -0.4 °C -1.2 °C 1020.2 hPa Calm     94% 0.0 mm 0.00 W/m2
07:40 -0.4 °C -1.2 °C 1020.2 hPa Calm     94% 0.0 mm 0.00 W/m2
07:45 -0.3 °C -1.1 °C 1020.2 hPa Calm     94% 0.0 mm 0.00 W/m2
07:50 -0.2 °C -1.0 °C 1020.2 hPa Calm     94% 0.0 mm 0.00 W/m2
07:55 -0.3 °C -1.1 °C 1019.9 hPa Calm     94% 0.0 mm 0.00 W/m2
08:00 -0.3 °C -1.1 °C 1019.9 hPa Calm     94% 0.0 mm 5.00 W/m2
08:05 -0.2 °C -1.0 °C 1019.9 hPa Calm     94% 0.0 mm 5.00 W/m2
08:10 -0.2 °C -1.0 °C 1019.9 hPa Calm     94% 0.0 mm 7.00 W/m2
08:15 -0.3 °C -1.1 °C 1019.9 hPa Calm     94% 0.0 mm 9.00 W/m2
08:20 -0.4 °C -1.2 °C 1020.2 hPa Calm     94% 0.0 mm 12.00 W/m2
08:25 -0.4 °C -1.2 °C 1020.2 hPa Calm     94% 0.0 mm 14.00 W/m2
08:30 -0.4 °C -1.2 °C 1020.2 hPa Calm     94% 0.0 mm 16.00 W/m2
08:35 -0.3 °C -1.1 °C 1020.2 hPa Calm     94% 0.0 mm 19.00 W/m2
08:40 -0.2 °C -1.0 °C 1020.2 hPa Calm     94% 0.0 mm 26.00 W/m2
08:45 -0.2 °C -1.0 °C 1020.2 hPa Calm     94% 0.0 mm 25.00 W/m2
08:51 -0.2 °C -1.0 °C 1020.5 hPa Calm     94% 0.0 mm 33.00 W/m2
08:55 -0.1 °C -0.9 °C 1020.5 hPa Calm     94% 0.0 mm 44.00 W/m2
09:00 -0.1 °C -0.9 °C 1020.5 hPa Calm     94% 0.0 mm 49.00 W/m2
09:05 -0.2 °C -1.0 °C 1020.5 hPa Calm     94% 0.0 mm 39.00 W/m2
09:10 -0.2 °C -1.0 °C 1020.5 hPa Calm     94% 0.0 mm 46.00 W/m2
09:15 -0.1 °C -0.9 °C 1020.5 hPa Calm     94% 0.0 mm 46.00 W/m2
09:20 -0.2 °C -1.0 °C 1020.5 hPa Calm     94% 0.0 mm 58.00 W/m2
09:25 -0.1 °C -0.9 °C 1020.5 hPa Calm     94% 0.0 mm 58.00 W/m2
09:30 0.0 °C -0.8 °C 1020.5 hPa Calm     94% 0.0 mm 63.00 W/m2
09:35 0.0 °C -0.8 °C 1020.5 hPa Calm     94% 0.0 mm 62.00 W/m2
09:40 0.1 °C -0.8 °C 1020.5 hPa Calm     94% 0.0 mm 65.00 W/m2
09:45 0.1 °C -0.8 °C 1020.5 hPa Calm     94% 0.0 mm 83.00 W/m2
09:50 0.3 °C -0.6 °C 1020.5 hPa Calm     94% 0.0 mm 98.00 W/m2
09:55 0.3 °C -0.6 °C 1020.5 hPa Calm     94% 0.0 mm 83.00 W/m2
10:00 0.6 °C -0.3 °C 1020.5 hPa Calm     94% 0.0 mm 107.00 W/m2
10:06 0.9 °C 0.2 °C 1020.5 hPa Calm     95% 0.3 mm 93.00 W/m2
10:10 1.2 °C 0.5 °C 1020.9 hPa Calm     95% 0.3 mm 88.00 W/m2
10:15 1.3 °C 0.6 °C 1020.5 hPa Calm     95% 0.3 mm 72.00 W/m2
10:20 1.2 °C 0.5 °C 1020.5 hPa Calm     95% 0.3 mm 63.00 W/m2
10:25 1.2 °C 0.5 °C 1020.5 hPa Calm     95% 0.3 mm 128.00 W/m2
10:30 1.8 °C 1.1 °C 1020.5 hPa Calm     95% 0.3 mm 102.00 W/m2
10:35 1.8 °C 1.1 °C 1020.5 hPa Calm     95% 0.3 mm 190.00 W/m2
10:40 2.3 °C 1.6 °C 1020.5 hPa Calm     95% 0.3 mm 183.00 W/m2
10:45 2.6 °C 1.9 °C 1020.5 hPa Calm     95% 0.3 mm 165.00 W/m2
10:50 2.7 °C 2.0 °C 1020.5 hPa Calm     95% 0.3 mm 165.00 W/m2
10:55 2.8 °C 2.1 °C 1020.5 hPa Calm     95% 0.3 mm 178.00 W/m2
11:01 3.4 °C 2.7 °C 1020.2 hPa Calm     95% 0.3 mm 209.00 W/m2
11:05 3.5 °C 2.8 °C 1020.2 hPa Calm     95% 0.0 mm 234.00 W/m2
11:10 4.0 °C 3.3 °C 1019.9 hPa Calm     95% 0.0 mm 185.00 W/m2
11:15 4.6 °C 3.7 °C 1019.9 hPa Calm     94% 0.0 mm 163.00 W/m2
11:20 4.3 °C 3.4 °C 1019.9 hPa Calm     94% 0.0 mm 163.00 W/m2
11:25 4.6 °C 3.6 °C 1019.9 hPa Calm     93% 0.0 mm 167.00 W/m2
11:30 4.7 °C 3.5 °C 1019.9 hPa Calm     92% 0.0 mm 172.00 W/m2
11:35 4.7 °C 3.4 °C 1019.9 hPa Calm     91% 0.0 mm 176.00 W/m2
11:40 4.9 °C 3.4 °C 1019.9 hPa Calm     90% 0.0 mm 179.00 W/m2
11:45 5.4 °C 3.7 °C 1019.9 hPa Calm     89% 0.0 mm 179.00 W/m2
11:50 6.1 °C 4.4 °C 1019.9 hPa Calm     89% 0.0 mm 181.00 W/m2
11:55 6.3 °C 4.5 °C 1019.5 hPa Calm     88% 0.0 mm 185.00 W/m2
12:00 6.6 °C 4.4 °C 1019.9 hPa Calm     86% 0.0 mm 186.00 W/m2
12:05 6.4 °C 4.1 °C 1019.5 hPa Calm     85% 0.0 mm 188.00 W/m2
12:10 6.1 °C 3.8 °C 1019.9 hPa Calm     85% 0.0 mm 188.00 W/m2
12:16 6.3 °C 4.0 °C 1019.9 hPa Calm     85% 0.0 mm 188.00 W/m2
12:20 7.3 °C 5.1 °C 1019.9 hPa Calm     86% 0.0 mm 188.00 W/m2
12:25 7.7 °C 5.2 °C 1019.9 hPa Calm     84% 0.0 mm 188.00 W/m2
12:30 7.7 °C 4.8 °C 1019.9 hPa Calm     82% 0.0 mm 188.00 W/m2
12:35 6.9 °C 4.0 °C 1019.9 hPa Calm     82% 0.0 mm 188.00 W/m2
12:40 6.8 °C 4.1 °C 1019.9 hPa Calm     83% 0.0 mm 186.00 W/m2
12:45 6.7 °C 4.2 °C 1019.9 hPa Calm     84% 0.0 mm 185.00 W/m2
12:50 6.6 °C 4.1 °C 1019.5 hPa Calm     84% 0.0 mm 181.00 W/m2
12:55 6.9 °C 4.4 °C 1019.5 hPa Calm     84% 0.0 mm 176.00 W/m2
13:00 7.4 °C 4.9 °C 1019.5 hPa Calm     84% 0.0 mm 178.00 W/m2
13:05 7.5 °C 4.8 °C 1019.5 hPa Calm     83% 0.0 mm 174.00 W/m2
13:10 8.1 °C 5.4 °C 1019.5 hPa SSW 1.4 km/h 3.2 km/h 83% 0.0 mm 167.00 W/m2
13:15 8.6 °C 5.5 °C 1019.5 hPa Calm     81% 0.0 mm 162.00 W/m2
13:20 8.6 °C 5.2 °C 1019.5 hPa Calm     79% 0.0 mm 158.00 W/m2
13:25 8.7 °C 5.1 °C 1019.5 hPa Calm     78% 0.0 mm 155.00 W/m2
13:30 7.9 °C 4.5 °C 1019.2 hPa Calm     79% 0.0 mm 137.00 W/m2
13:35 7.7 °C 4.5 °C 1019.2 hPa Calm     80% 0.0 mm 151.00 W/m2
13:40 7.6 °C 4.4 °C 1019.2 hPa Calm     80% 0.0 mm 141.00 W/m2
13:45 7.5 °C 4.5 °C 1019.2 hPa Calm     81% 0.0 mm 130.00 W/m2
13:50 7.4 °C 4.4 °C 1019.2 hPa SSW 1.4 km/h 4.8 km/h 81% 0.0 mm 127.00 W/m2
13:55 7.9 °C 5.0 °C 1019.2 hPa SSW 3.2 km/h 4.8 km/h 82% 0.0 mm 70.00 W/m2
14:00 7.5 °C 4.5 °C 1019.2 hPa SSW 4.7 km/h 4.8 km/h 81% 0.0 mm 62.00 W/m2
14:05 7.2 °C 4.2 °C 1019.2 hPa SSW 3.2 km/h 6.4 km/h 81% 0.0 mm 58.00 W/m2
14:10 7.1 °C 4.2 °C 1019.2 hPa SSW 1.4 km/h 6.4 km/h 82% 0.0 mm 84.00 W/m2
14:15 6.8 °C 3.9 °C 1019.2 hPa SSW 3.2 km/h 6.4 km/h 82% 0.0 mm 74.00 W/m2
14:20 6.7 °C 4.0 °C 1019.2 hPa SSW 3.2 km/h 6.4 km/h 83% 0.0 mm 79.00 W/m2
14:25 6.7 °C 4.2 °C 1019.2 hPa Calm   3.2 km/h 84% 0.0 mm 77.00 W/m2
14:30 6.8 °C 4.3 °C 1019.2 hPa Calm   4.8 km/h 84% 0.0 mm 79.00 W/m2
14:35 6.7 °C 4.2 °C 1019.2 hPa SSW 1.4 km/h 3.2 km/h 84% 0.0 mm 72.00 W/m2
14:40 6.9 °C 4.4 °C 1019.2 hPa Calm     84% 0.0 mm 83.00 W/m2
14:45 7.6 °C 4.9 °C 1019.2 hPa Calm     83% 0.0 mm 72.00 W/m2
14:50 7.9 °C 5.0 °C 1019.2 hPa Calm     82% 0.0 mm 69.00 W/m2
14:55 7.9 °C 4.8 °C 1018.8 hPa Calm     81% 0.0 mm 49.00 W/m2
15:00 8.1 °C 5.0 °C 1019.2 hPa Calm     81% 0.0 mm 47.00 W/m2
15:05 8.2 °C 5.0 °C 1019.2 hPa Calm     80% 0.0 mm 42.00 W/m2
15:10 7.8 °C 4.6 °C 1019.2 hPa Calm     80% 0.0 mm 37.00 W/m2
15:15 7.5 °C 4.3 °C 1019.2 hPa Calm     80% 0.0 mm 33.00 W/m2
15:20 7.2 °C 4.0 °C 1019.5 hPa Calm     80% 0.0 mm 33.00 W/m2
15:25 7.0 °C 4.0 °C 1019.5 hPa Calm     81% 0.0 mm 30.00 W/m2
15:30 6.9 °C 3.9 °C 1019.5 hPa Calm     81% 0.0 mm 23.00 W/m2
15:35 6.8 °C 3.9 °C 1019.5 hPa Calm     82% 0.0 mm 19.00 W/m2
15:40 6.8 °C 3.9 °C 1019.5 hPa Calm     82% 0.0 mm 16.00 W/m2
15:45 6.6 °C 3.7 °C 1019.2 hPa Calm     82% 0.0 mm 12.00 W/m2
15:50 6.6 °C 3.9 °C 1019.2 hPa Calm     83% 0.0 mm 11.00 W/m2
15:55 6.5 °C 3.8 °C 1019.2 hPa Calm     83% 0.0 mm 9.00 W/m2
16:00 6.2 °C 3.5 °C 1019.5 hPa Calm     83% 0.0 mm 7.00 W/m2
16:05 5.9 °C 3.2 °C 1019.5 hPa Calm     83% 0.0 mm 5.00 W/m2
16:10 5.6 °C 2.9 °C 1019.5 hPa Calm     83% 0.0 mm 0.00 W/m2
16:15 5.4 °C 2.9 °C 1019.5 hPa Calm     84% 0.0 mm 0.00 W/m2
16:20 5.3 °C 2.8 °C 1019.5 hPa Calm     84% 0.0 mm 0.00 W/m2
16:25 5.3 °C 2.8 °C 1019.5 hPa Calm     84% 0.0 mm 0.00 W/m2
16:30 5.1 °C 2.8 °C 1019.5 hPa Calm     85% 0.0 mm 0.00 W/m2
16:35 4.8 °C 2.5 °C 1019.5 hPa Calm     85% 0.0 mm 0.00 W/m2
16:40 4.5 °C 2.2 °C 1019.5 hPa Calm     85% 0.0 mm 0.00 W/m2
16:45 4.1 °C 2.0 °C 1019.5 hPa Calm     86% 0.0 mm 0.00 W/m2
16:50 3.9 °C 1.8 °C 1019.5 hPa Calm     86% 0.0 mm 0.00 W/m2
16:55 3.7 °C 1.6 °C 1019.9 hPa Calm     86% 0.0 mm 0.00 W/m2
17:00 3.7 °C 1.7 °C 1019.9 hPa Calm     87% 0.0 mm 0.00 W/m2
17:05 3.4 °C 1.4 °C 1020.2 hPa Calm     87% 0.0 mm 0.00 W/m2
17:10 3.1 °C 1.1 °C 1020.2 hPa Calm     87% 0.0 mm 0.00 W/m2
17:15 3.1 °C 1.3 °C 1020.2 hPa Calm     88% 0.0 mm 0.00 W/m2
17:20 3.1 °C 1.3 °C 1020.2 hPa Calm     88% 0.0 mm 0.00 W/m2
17:25 3.1 °C 1.3 °C 1020.2 hPa Calm     88% 0.0 mm 0.00 W/m2
17:30 2.9 °C 1.1 °C 1020.5 hPa Calm     88% 0.0 mm 0.00 W/m2
17:35 2.7 °C 0.9 °C 1020.5 hPa Calm     88% 0.0 mm 0.00 W/m2
17:40 2.5 °C 0.7 °C 1020.5 hPa Calm     88% 0.0 mm 0.00 W/m2
17:45 2.5 °C 0.9 °C 1020.5 hPa Calm     89% 0.0 mm 0.00 W/m2
17:50 2.4 °C 0.8 °C 1020.5 hPa Calm     89% 0.0 mm 0.00 W/m2
17:55 2.3 °C 0.7 °C 1020.5 hPa Calm     89% 0.0 mm 0.00 W/m2
18:00 2.2 °C 0.6 °C 1020.5 hPa Calm     89% 0.0 mm 0.00 W/m2
18:05 2.0 °C 0.4 °C 1020.5 hPa Calm     89% 0.0 mm 0.00 W/m2
18:10 2.1 °C 0.5 °C 1020.5 hPa Calm     89% 0.0 mm 0.00 W/m2
18:15 2.0 °C 0.5 °C 1020.5 hPa Calm     90% 0.0 mm 0.00 W/m2
18:21 1.9 °C 0.4 °C 1020.5 hPa Calm     90% 0.0 mm 0.00 W/m2
18:25 1.9 °C 0.4 °C 1020.5 hPa Calm     90% 0.0 mm 0.00 W/m2
18:30 1.9 °C 0.4 °C 1020.5 hPa Calm     90% 0.0 mm 0.00 W/m2
18:35 1.8 °C 0.3 °C 1020.5 hPa Calm     90% 0.0 mm 0.00 W/m2
18:40 1.8 °C 0.3 °C 1020.5 hPa Calm     90% 0.0 mm 0.00 W/m2
18:45 1.8 °C 0.3 °C 1020.5 hPa Calm     90% 0.0 mm 0.00 W/m2
18:50 1.4 °C -0.1 °C 1020.5 hPa Calm     90% 0.0 mm 0.00 W/m2
18:55 1.3 °C -0.2 °C 1020.5 hPa Calm     90% 0.0 mm 0.00 W/m2
19:00 1.4 °C -0.1 °C 1020.5 hPa Calm     90% 0.0 mm 0.00 W/m2
19:05 1.4 °C -0.1 °C 1020.5 hPa Calm     90% 0.0 mm 0.00 W/m2
19:10 1.3 °C -0.2 °C 1020.5 hPa Calm     90% 0.0 mm 0.00 W/m2
19:15 1.3 °C 0.0 °C 1020.5 hPa Calm     91% 0.0 mm 0.00 W/m2
19:20 1.1 °C -0.2 °C 1020.5 hPa Calm     91% 0.0 mm 0.00 W/m2
19:25 1.2 °C -0.1 °C 1020.5 hPa Calm     91% 0.0 mm 0.00 W/m2
19:30 1.1 °C -0.2 °C 1020.5 hPa Calm     91% 0.0 mm 0.00 W/m2
19:35 1.1 °C -0.2 °C 1020.5 hPa Calm     91% 0.0 mm 0.00 W/m2
19:40 0.9 °C -0.4 °C 1020.5 hPa Calm     91% 0.0 mm 0.00 W/m2
19:45 0.9 °C -0.4 °C 1020.5 hPa Calm     91% 0.0 mm 0.00 W/m2
19:50 0.8 °C -0.5 °C 1020.5 hPa Calm     91% 0.0 mm 0.00 W/m2
19:55 0.9 °C -0.4 °C 1020.5 hPa Calm     91% 0.0 mm 0.00 W/m2
20:00 0.9 °C -0.4 °C 1020.5 hPa Calm     91% 0.0 mm 0.00 W/m2
20:05 0.9 °C -0.4 °C 1020.5 hPa Calm     91% 0.0 mm 0.00 W/m2
20:10 0.9 °C -0.4 °C 1020.5 hPa Calm     91% 0.0 mm 0.00 W/m2
20:15 0.8 °C -0.5 °C 1020.5 hPa Calm     91% 0.0 mm 0.00 W/m2
20:20 0.6 °C -0.7 °C 1020.5 hPa Calm     91% 0.0 mm 0.00 W/m2
20:25 0.4 °C -0.9 °C 1020.5 hPa Calm     91% 0.0 mm 0.00 W/m2
20:30 0.4 °C -0.9 °C 1020.5 hPa Calm     91% 0.0 mm 0.00 W/m2
20:35 0.5 °C -0.6 °C 1020.5 hPa Calm     92% 0.0 mm 0.00 W/m2
20:41 0.5 °C -0.6 °C 1020.5 hPa Calm     92% 0.0 mm 0.00 W/m2
20:45 0.5 °C -0.6 °C 1020.5 hPa Calm     92% 0.0 mm 0.00 W/m2
20:50 0.5 °C -0.6 °C 1020.5 hPa Calm     92% 0.0 mm 0.00 W/m2
20:55 0.5 °C -0.6 °C 1020.5 hPa Calm     92% 0.0 mm 0.00 W/m2
21:00 0.4 °C -0.7 °C 1020.9 hPa Calm     92% 0.0 mm 0.00 W/m2
21:05 0.3 °C -0.8 °C 1020.5 hPa Calm     92% 0.0 mm 0.00 W/m2
21:10 0.2 °C -0.9 °C 1020.5 hPa Calm     92% 0.0 mm 0.00 W/m2
21:15 0.2 °C -0.9 °C 1020.9 hPa Calm     92% 0.0 mm 0.00 W/m2
21:20 -0.1 °C -1.2 °C 1020.9 hPa Calm     92% 0.0 mm 0.00 W/m2
21:25 -0.1 °C -1.2 °C 1020.9 hPa Calm     92% 0.0 mm 0.00 W/m2
21:30 -0.1 °C -1.2 °C 1021.2 hPa Calm     92% 0.0 mm 0.00 W/m2
21:35 0.0 °C -1.1 °C 1020.9 hPa Calm     92% 0.0 mm 0.00 W/m2
21:40 0.0 °C -1.1 °C 1021.2 hPa Calm     92% 0.0 mm 0.00 W/m2
21:45 -0.1 °C -1.2 °C 1021.2 hPa Calm     92% 0.0 mm 0.00 W/m2
21:50 -0.1 °C -1.2 °C 1021.2 hPa Calm     92% 0.0 mm 0.00 W/m2
21:55 -0.2 °C -1.3 °C 1021.2 hPa Calm     92% 0.0 mm 0.00 W/m2
22:00 -0.2 °C -1.3 °C 1021.2 hPa Calm     92% 0.0 mm 0.00 W/m2
22:05 -0.2 °C -1.3 °C 1021.2 hPa Calm     92% 0.0 mm 0.00 W/m2
22:10 -0.3 °C -1.4 °C 1021.2 hPa Calm     92% 0.0 mm 0.00 W/m2
22:15 -0.3 °C -1.4 °C 1021.2 hPa Calm     92% 0.0 mm 0.00 W/m2
22:20 -0.3 °C -1.4 °C 1021.2 hPa Calm     92% 0.0 mm 0.00 W/m2
22:25 -0.3 °C -1.4 °C 1021.2 hPa Calm     92% 0.0 mm 0.00 W/m2
22:30 -0.4 °C -1.5 °C 1021.2 hPa Calm     92% 0.0 mm 0.00 W/m2
22:35 -0.5 °C -1.6 °C 1021.2 hPa Calm     92% 0.0 mm 0.00 W/m2
22:40 -0.4 °C -1.5 °C 1021.2 hPa Calm     92% 0.0 mm 0.00 W/m2
22:45 -0.4 °C -1.5 °C 1021.2 hPa Calm     92% 0.0 mm 0.00 W/m2
22:50 -0.5 °C -1.6 °C 1021.2 hPa Calm     92% 0.0 mm 0.00 W/m2
22:55 -0.5 °C -1.6 °C 1021.2 hPa Calm     92% 0.0 mm 0.00 W/m2
23:01 -0.6 °C -1.7 °C 1021.2 hPa Calm     92% 0.0 mm 0.00 W/m2
23:05 -0.6 °C -1.7 °C 1021.2 hPa Calm     92% 0.0 mm 0.00 W/m2
23:10 -0.7 °C -1.8 °C 1021.2 hPa Calm     92% 0.0 mm 0.00 W/m2
23:15 -0.7 °C -1.8 °C 1021.2 hPa Calm     92% 0.0 mm 0.00 W/m2
23:20 -0.6 °C -1.7 °C 1021.2 hPa Calm     92% 0.0 mm 0.00 W/m2
23:25 -0.6 °C -1.6 °C 1021.2 hPa Calm     93% 0.0 mm 0.00 W/m2
23:30 -0.6 °C -1.6 °C 1021.6 hPa Calm     93% 0.0 mm 0.00 W/m2
23:35 -0.6 °C -1.6 °C 1021.6 hPa Calm     93% 0.0 mm 0.00 W/m2
23:40 -0.7 °C -1.7 °C 1021.6 hPa Calm     93% 0.0 mm 0.00 W/m2
23:45 -0.7 °C -1.7 °C 1021.6 hPa Calm     93% 0.0 mm 0.00 W/m2
23:50 -0.7 °C -1.7 °C 1021.2 hPa Calm     93% 0.0 mm 0.00 W/m2
23:55 -0.7 °C -1.7 °C 1021.6 hPa Calm     93% 0.0 mm 0.00 W/m2